Time;durP1;ratioP1;P1;durP2;ratioP2;P2;SDS_P1;SDS_P2;PMS_P1;PMS_P2;Temp;Humidity;BMP_temperature;BMP_pressure;BME280_temperature;BME280_humidity;BME280_pressure;Samples;Min_cycle;Max_cycle;Signal;HPM_P1;HPM_P2
2022/06/30 00:00:13;;;;;;;44.78;10.00;;;;;;;21.08;100.00;97641.56;5035961;28;20020;-57
2022/06/30 00:02:39;;;;;;;40.33;9.48;;;;;;;21.22;100.00;97629.72;5036759;28;20032;-58
2022/06/30 00:05:05;;;;;;;39.38;10.07;;;;;;;21.12;100.00;97635.03;5037341;28;20033;-57
2022/06/30 00:07:31;;;;;;;31.17;9.18;;;;;;;21.45;100.00;97630.31;5037355;28;20032;-57
2022/06/30 00:09:56;;;;;;;36.90;8.95;;;;;;;21.45;100.00;97632.94;5036488;28;20075;-57
2022/06/30 00:12:21;;;;;;;37.33;8.73;;;;;;;21.55;100.00;97637.28;5036149;28;20107;-58
2022/06/30 00:14:47;;;;;;;39.80;9.05;;;;;;;21.52;100.00;97626.97;5037095;28;20052;-57
2022/06/30 00:17:12;;;;;;;33.88;8.80;;;;;;;21.22;100.00;97635.84;5037482;28;20102;-57
2022/06/30 00:19:38;;;;;;;33.97;9.63;;;;;;;21.16;100.00;97633.78;5037967;28;20028;-57
2022/06/30 00:22:06;;;;;;;37.88;9.80;;;;;;;21.41;100.00;97626.22;5035948;28;20136;-57
2022/06/30 00:24:32;;;;;;;36.25;9.27;;;;;;;21.10;100.00;97626.34;5037472;28;20266;-57
2022/06/30 00:26:58;;;;;;;43.92;9.93;;;;;;;21.21;100.00;97618.28;5036715;28;20494;-57
2022/06/30 00:29:23;;;;;;;40.45;9.43;;;;;;;21.03;100.00;97634.03;5036712;28;20079;-57
2022/06/30 00:31:49;;;;;;;45.08;10.20;;;;;;;21.33;100.00;97621.63;5035868;28;20052;-58
2022/06/30 00:34:14;;;;;;;37.95;9.45;;;;;;;21.34;100.00;97613.53;5037512;28;20029;-57
2022/06/30 00:36:39;;;;;;;33.63;9.27;;;;;;;21.24;100.00;97615.34;5035957;28;20044;-56
2022/06/30 00:39:05;;;;;;;42.58;10.13;;;;;;;21.04;100.00;97622.44;5036327;28;21004;-58
2022/06/30 00:41:30;;;;;;;34.63;8.98;;;;;;;21.04;100.00;97622.44;5036355;28;20040;-57
2022/06/30 00:43:55;;;;;;;32.65;9.20;;;;;;;20.95;100.00;97624.13;5037386;28;20078;-59
2022/06/30 00:46:21;;;;;;;35.78;9.30;;;;;;;20.80;100.00;97620.19;5036343;28;20090;-59
2022/06/30 00:48:46;;;;;;;41.80;9.63;;;;;;;20.91;100.00;97616.56;5036266;28;20099;-58
2022/06/30 00:51:12;;;;;;;35.53;9.00;;;;;;;20.89;100.00;97614.06;5033446;28;20060;-58
2022/06/30 00:53:41;;;;;;;33.00;9.15;;;;;;;20.85;100.00;97607.34;5035667;28;20103;-59
2022/06/30 00:56:09;;;;;;;40.25;9.98;;;;;;;20.61;100.00;97618.31;5035376;28;20035;-58
2022/06/30 00:58:44;;;;;;;41.65;10.07;;;;;;;20.53;100.00;97613.69;5036716;28;20037;-57
2022/06/30 01:01:12;;;;;;;43.67;9.93;;;;;;;20.52;100.00;97609.34;5035311;28;20511;-57
2022/06/30 01:03:38;;;;;;;30.65;9.10;;;;;;;20.74;100.00;97604.84;5037629;28;20040;-57
2022/06/30 01:06:05;;;;;;;33.88;9.15;;;;;;;20.46;100.00;97604.59;5036193;28;20037;-56
2022/06/30 01:08:31;;;;;;;34.78;10.10;;;;;;;20.12;100.00;97618.09;5036035;28;20115;-57
2022/06/30 01:13:42;;;;;;;36.35;9.52;;;;;;;20.02;100.00;97617.22;5036606;28;20036;-57
2022/06/30 01:16:09;;;;;;;40.75;9.63;;;;;;;19.72;100.00;97616.22;5037524;28;20041;-56
2022/06/30 01:18:35;;;;;;;36.42;9.23;;;;;;;19.73;100.00;97617.91;5040152;28;20029;-57
2022/06/30 01:21:01;;;;;;;35.55;9.45;;;;;;;20.17;100.00;97607.13;5039635;28;20029;-57
2022/06/30 01:23:26;;;;;;;39.97;9.93;;;;;;;20.00;100.00;97608.59;5040701;28;20024;-57
2022/06/30 01:25:52;;;;;;;39.75;9.60;;;;;;;20.10;100.00;97612.09;5040632;28;20037;-59
2022/06/30 01:28:18;;;;;;;39.63;9.45;;;;;;;20.37;100.00;97602.75;5040184;28;20565;-58
2022/06/30 01:30:43;;;;;;;44.53;10.50;;;;;;;20.11;100.00;97611.16;5038236;28;20830;-59
2022/06/30 01:33:09;;;;;;;41.05;10.13;;;;;;;20.11;100.00;97610.31;5040570;28;20064;-60
2022/06/30 01:35:34;;;;;;;38.85;9.63;;;;;;;20.23;100.00;97614.53;5040323;28;20036;-59
2022/06/30 01:38:00;;;;;;;32.35;9.40;;;;;;;20.17;100.00;97607.97;5040172;28;20025;-57
2022/06/30 01:40:29;;;;;;;38.00;9.93;;;;;;;20.03;100.00;97605.66;5038863;28;20050;-57
2022/06/30 01:42:54;;;;;;;38.58;10.13;;;;;;;19.98;100.00;97605.25;5039605;28;20033;-57
2022/06/30 01:45:20;;;;;;;38.92;9.80;;;;;;;20.11;100.00;97603.19;5039630;28;20028;-57
2022/06/30 01:47:46;;;;;;;47.42;10.70;;;;;;;20.03;100.00;97606.53;5040169;28;20017;-57
2022/06/30 01:50:15;;;;;;;52.92;12.00;;;;;;;20.00;100.00;97616.53;5038764;28;20023;-56
2022/06/30 01:52:40;;;;;;;44.85;10.73;;;;;;;19.87;100.00;97605.28;5040637;28;20039;-57
2022/06/30 01:55:09;;;;;;;42.50;10.55;;;;;;;19.92;100.00;97613.69;5039716;28;20037;-57
2022/06/30 01:57:36;;;;;;;42.55;10.60;;;;;;;20.01;100.00;97607.59;5040873;28;20036;-57
2022/06/30 02:00:06;;;;;;;49.20;11.38;;;;;;;19.89;100.00;97613.94;5027874;28;20333;-57
2022/06/30 02:02:31;;;;;;;38.67;10.35;;;;;;;19.74;100.00;97616.94;5038960;28;20074;-57
2022/06/30 02:04:57;;;;;;;40.28;10.70;;;;;;;19.88;100.00;97617.56;5039502;28;20032;-57
2022/06/30 02:07:26;;;;;;;42.05;10.52;;;;;;;19.64;100.00;97621.28;5039141;28;20168;-57
2022/06/30 02:09:51;;;;;;;47.95;10.73;;;;;;;19.80;100.00;97616.41;5039049;28;20017;-56
2022/06/30 02:15:03;;;;;;;42.60;10.38;;;;;;;19.85;100.00;97618.69;5039697;28;20075;-56
2022/06/30 02:17:29;;;;;;;40.70;10.63;;;;;;;19.77;100.00;97623.78;5040044;28;20051;-58
2022/06/30 02:19:54;;;;;;;48.28;11.10;;;;;;;20.07;100.00;97617.69;5038739;28;20106;-57
2022/06/30 02:22:20;;;;;;;45.33;11.23;;;;;;;19.84;100.00;97617.81;5038726;28;20068;-57
2022/06/30 02:24:45;;;;;;;41.45;10.38;;;;;;;19.78;100.00;97623.66;5040636;28;20431;-57
2022/06/30 02:27:11;;;;;;;37.15;10.65;;;;;;;19.87;100.00;97615.88;5038305;28;20041;-57
2022/06/30 02:29:36;;;;;;;36.17;10.68;;;;;;;19.83;100.00;97621.44;5038895;28;20692;-57
2022/06/30 02:32:03;;;;;;;34.80;10.32;;;;;;;19.59;100.00;97623.47;5038449;28;20045;-56
2022/06/30 02:34:28;;;;;;;35.05;10.98;;;;;;;19.55;100.00;97622.88;5039246;28;20161;-58
2022/06/30 02:36:54;;;;;;;40.78;11.18;;;;;;;19.69;100.00;97627.03;5038730;28;20045;-56
2022/06/30 02:39:19;;;;;;;36.35;10.85;;;;;;;19.76;100.00;97635.34;5038508;28;20033;-57
2022/06/30 02:41:45;;;;;;;34.40;10.88;;;;;;;19.77;100.00;97627.25;5037639;28;20129;-56
2022/06/30 02:44:10;;;;;;;33.97;10.57;;;;;;;19.62;100.00;97636.47;5038875;28;20025;-57
2022/06/30 02:46:36;;;;;;;35.97;11.05;;;;;;;19.29;100.00;97638.28;5038190;28;20037;-56
2022/06/30 02:49:01;;;;;;;32.10;10.68;;;;;;;19.33;100.00;97644.16;5038503;28;20050;-57
2022/06/30 02:51:26;;;;;;;33.78;11.32;;;;;;;19.23;100.00;97644.09;5037516;28;20072;-58
2022/06/30 02:53:52;;;;;;;33.10;9.80;;;;;;;19.56;100.00;97636.97;5038866;28;20593;-56
2022/06/30 02:56:17;;;;;;;32.20;9.98;;;;;;;19.49;100.00;97638.47;5037986;28;20047;-56
2022/06/30 02:58:43;;;;;;;36.85;11.15;;;;;;;19.33;100.00;97645.00;5038102;28;20037;-58
2022/06/30 03:01:08;;;;;;;38.70;11.40;;;;;;;19.13;100.00;97643.16;5038217;28;20538;-57
2022/06/30 03:03:34;;;;;;;37.78;11.85;;;;;;;18.94;100.00;97655.22;5037834;28;20070;-56
2022/06/30 03:05:59;;;;;;;37.22;10.73;;;;;;;19.08;100.00;97651.47;5037896;28;20487;-58
2022/06/30 03:08:25;;;;;;;34.05;10.68;;;;;;;19.37;100.00;97646.44;5038253;28;20036;-57
2022/06/30 03:10:50;;;;;;;28.75;9.05;;;;;;;19.64;100.00;97642.44;5037310;28;20049;-56
2022/06/30 03:13:16;;;;;;;34.80;10.73;;;;;;;19.39;100.00;97639.22;5038712;28;20064;-58
2022/06/30 03:15:41;;;;;;;35.17;11.30;;;;;;;18.91;100.00;97644.88;5037333;28;20068;-57
2022/06/30 03:18:07;;;;;;;33.47;11.32;;;;;;;18.83;100.00;97642.88;5039025;28;20032;-58
2022/06/30 03:20:32;;;;;;;32.08;10.60;;;;;;;18.90;100.00;97645.88;5036606;28;20044;-57
2022/06/30 03:22:57;;;;;;;32.45;10.50;;;;;;;19.32;100.00;97647.75;5038046;28;20036;-58
2022/06/30 03:25:23;;;;;;;37.97;10.55;;;;;;;19.00;100.00;97652.06;5037634;28;20558;-57
2022/06/30 03:27:48;;;;;;;39.33;11.02;;;;;;;18.91;100.00;97668.66;5038055;28;20032;-57
2022/06/30 03:30:13;;;;;;;34.10;10.57;;;;;;;19.02;100.00;97658.09;5035903;28;20024;-57
2022/06/30 03:32:39;;;;;;;37.00;11.07;;;;;;;18.93;100.00;97661.50;5038119;28;20037;-57
2022/06/30 03:35:05;;;;;;;31.50;10.73;;;;;;;19.04;100.00;97661.47;5038124;28;20150;-57
2022/06/30 03:37:31;;;;;;;38.80;10.93;;;;;;;19.31;100.00;97657.50;5038239;28;20496;-58
2022/06/30 03:39:57;;;;;;;44.72;11.77;;;;;;;19.18;100.00;97656.84;5036643;28;20054;-57
2022/06/30 03:42:23;;;;;;;37.65;10.77;;;;;;;19.16;100.00;97653.47;5038024;28;20044;-58
2022/06/30 03:44:48;;;;;;;37.72;11.55;;;;;;;18.91;100.00;97666.03;5037367;28;20548;-57
2022/06/30 03:47:14;;;;;;;33.00;10.40;;;;;;;19.27;100.00;97661.38;5037477;28;20033;-57
2022/06/30 03:49:39;;;;;;;33.53;9.98;;;;;;;19.54;100.00;97658.25;5037586;28;20025;-56
2022/06/30 03:52:05;;;;;;;36.45;10.90;;;;;;;19.40;100.00;97651.47;5036328;28;20037;-57
2022/06/30 03:54:30;;;;;;;33.28;11.43;;;;;;;19.19;100.00;97659.38;5038007;28;20029;-57
2022/06/30 03:56:56;;;;;;;34.90;10.80;;;;;;;18.91;100.00;97655.47;5037310;28;20033;-56
2022/06/30 03:59:21;;;;;;;35.22;10.75;;;;;;;19.35;100.00;97661.56;5037519;28;20016;-57
2022/06/30 04:01:46;;;;;;;30.23;10.20;;;;;;;19.59;100.00;97656.09;5036430;28;20067;-57
2022/06/30 04:04:12;;;;;;;37.75;10.88;;;;;;;19.51;100.00;97657.69;5038380;28;20060;-59
2022/06/30 04:06:37;;;;;;;32.38;10.13;;;;;;;19.65;100.00;97654.72;5037304;28;20112;-56
2022/06/30 04:09:03;;;;;;;31.45;10.45;;;;;;;19.67;100.00;97649.28;5037477;28;20036;-56
2022/06/30 04:11:28;;;;;;;34.00;10.80;;;;;;;19.69;100.00;97661.44;5036842;28;20040;-57
2022/06/30 04:13:53;;;;;;;26.17;9.77;;;;;;;19.64;100.00;97660.97;5038073;28;20029;-57
2022/06/30 04:16:19;;;;;;;33.80;10.20;;;;;;;19.48;100.00;97663.22;5037080;28;20125;-57
2022/06/30 04:18:44;;;;;;;36.17;11.13;;;;;;;19.70;100.00;97663.09;5037570;28;20021;-56
2022/06/30 04:21:09;;;;;;;34.05;9.63;;;;;;;20.27;100.00;97657.47;5036808;28;20033;-57
2022/06/30 04:23:35;;;;;;;30.05;10.40;;;;;;;20.21;100.00;97661.50;5037185;28;20683;-58
2022/06/30 04:26:01;;;;;;;29.67;10.10;;;;;;;19.98;100.00;97666.13;5037330;28;20041;-56
2022/06/30 04:28:27;;;;;;;31.13;9.95;;;;;;;20.39;100.00;97665.19;5036697;28;20070;-56
2022/06/30 04:33:36;;;;;;;33.28;10.27;;;;;;;20.33;100.00;97664.91;5037278;28;20094;-57
2022/06/30 04:36:01;;;;;;;32.92;10.82;;;;;;;20.27;100.00;97666.25;5036889;28;20044;-59
2022/06/30 04:38:27;;;;;;;31.90;10.27;;;;;;;20.26;100.00;97664.59;5037183;28;20032;-58
2022/06/30 04:43:35;;;;;;;36.78;9.82;;;;;;;20.67;100.00;97662.00;5036994;28;20655;-58
2022/06/30 04:46:01;;;;;;;30.05;9.73;;;;;;;20.77;100.00;97658.41;5036779;28;20037;-58
2022/06/30 04:48:26;;;;;;;32.83;9.50;;;;;;;20.95;100.00;97663.91;5036748;28;20017;-58
2022/06/30 04:50:51;;;;;;;34.15;10.00;;;;;;;21.11;100.00;97638.66;5036906;28;20510;-58
2022/06/30 04:53:17;;;;;;;27.60;8.48;;;;;;;21.59;100.00;97643.16;5041573;28;20033;-58
2022/06/30 04:55:42;;;;;;;30.13;9.52;;;;;;;21.27;100.00;97654.03;5040788;28;20052;-58
2022/06/30 04:58:08;;;;;;;29.42;10.30;;;;;;;21.93;100.00;97642.69;5040038;28;20025;-59
2022/06/30 05:00:33;;;;;;;31.65;9.80;;;;;;;21.72;100.00;97633.06;5039474;28;20025;-59
2022/06/30 05:02:58;;;;;;;33.15;10.13;;;;;;;22.25;100.00;97628.19;5041101;28;20035;-58
2022/06/30 05:05:25;;;;;;;30.02;10.40;;;;;;;23.47;100.00;97619.91;5040460;28;20569;-58
2022/06/30 05:07:50;;;;;;;29.67;8.80;;;;;;;24.81;100.00;97604.44;5040852;28;20486;-58
2022/06/30 05:10:16;;;;;;;26.27;8.35;;;;;;;24.83;100.00;97598.91;5037804;28;20055;-58
2022/06/30 05:12:41;;;;;;;24.35;8.20;;;;;;;24.63;100.00;97601.03;5041378;28;20033;-58
2022/06/30 05:15:07;;;;;;;27.30;8.15;;;;;;;24.57;100.00;97593.66;5040725;28;20072;-57
2022/06/30 05:17:34;;;;;;;25.65;9.00;;;;;;;23.07;100.00;97606.09;5040513;28;20029;-58
2022/06/30 05:19:59;;;;;;;36.10;10.23;;;;;;;24.71;100.00;97598.38;5040237;28;20048;-58
2022/06/30 05:22:25;;;;;;;28.25;9.15;;;;;;;24.61;100.00;97601.19;5039910;28;20470;-58
2022/06/30 05:27:34;;;;;;;24.02;9.35;;;;;;;23.92;100.00;97618.13;5040271;28;20044;-58
2022/06/30 05:30:00;;;;;;;38.78;10.48;;;;;;;24.66;100.00;97611.34;5039183;28;20028;-58
2022/06/30 05:32:25;;;;;;;23.73;7.95;;;;;;;26.65;100.00;97593.28;5040065;28;20033;-58
2022/06/30 05:34:51;;;;;;;25.05;8.57;;;;;;;27.40;100.00;97586.44;5040364;28;20074;-59
2022/06/30 05:37:16;;;;;;;23.05;8.18;;;;;;;26.35;100.00;97598.38;5040170;28;20033;-59
2022/06/30 05:39:42;;;;;;;20.25;8.10;;;;;;;26.22;100.00;97592.75;5040165;28;20199;-58
2022/06/30 05:42:07;;;;;;;22.95;8.10;;;;;;;26.89;100.00;97588.78;5039052;28;20840;-59
2022/06/30 05:44:32;;;;;;;24.73;8.05;;;;;;;26.57;100.00;97585.25;5039975;28;20033;-59
2022/06/30 05:46:58;;;;;;;19.02;7.53;;;;;;;28.53;100.00;97591.91;5037088;28;20465;-58
2022/06/30 05:49:25;;;;;;;22.95;7.45;;;;;;;29.39;100.00;97582.13;5038542;28;20072;-59
2022/06/30 05:51:51;;;;;;;19.30;7.30;;;;;;;31.37;100.00;97578.19;5038937;28;20103;-58
2022/06/30 05:54:16;;;;;;;23.58;7.88;;;;;;;31.12;100.00;97586.88;5034064;28;20457;-59
2022/06/30 05:56:41;;;;;;;21.27;7.40;;;;;;;31.73;100.00;97577.81;5036040;28;20037;-59
2022/06/30 05:59:07;;;;;;;19.50;6.97;;;;;;;33.59;82.71;97565.41;5037682;28;20025;-58
2022/06/30 06:01:32;;;;;;;20.67;6.88;;;;;;;32.61;92.87;97580.16;5036811;28;20064;-58
2022/06/30 06:03:57;;;;;;;20.13;6.60;;;;;;;33.55;77.24;97564.19;5038711;28;20095;-58
2022/06/30 06:06:23;;;;;;;17.00;5.90;;;;;;;34.36;74.14;97565.09;5037199;28;20183;-58
2022/06/30 06:08:48;;;;;;;15.52;5.68;;;;;;;35.50;65.12;97566.28;5039517;28;20490;-59
2022/06/30 06:11:14;;;;;;;19.63;6.55;;;;;;;35.85;61.67;97566.34;5037881;28;20069;-58
2022/06/30 06:13:39;;;;;;;13.80;5.90;;;;;;;34.70;68.86;97570.13;5039683;28;20036;-58
2022/06/30 06:16:05;;;;;;;18.73;5.60;;;;;;;35.82;59.93;97568.69;5039327;28;20045;-58
2022/06/30 06:18:30;;;;;;;15.77;6.05;;;;;;;35.18;61.46;97565.72;5039780;28;20767;-58
2022/06/30 06:20:55;;;;;;;15.77;5.75;;;;;;;35.62;60.45;97569.00;5038456;28;20136;-57
2022/06/30 06:23:21;;;;;;;17.83;6.03;;;;;;;36.66;55.03;97565.63;5039495;28;20524;-58
2022/06/30 06:25:46;;;;;;;12.88;5.68;;;;;;;35.44;57.14;97554.50;5038613;28;20135;-58
2022/06/30 06:30:56;;;;;;;15.65;5.57;;;;;;;36.97;50.39;97561.66;5037981;28;20552;-58
2022/06/30 06:33:21;;;;;;;12.63;5.88;;;;;;;37.30;48.96;97560.06;5039679;28;20148;-58
2022/06/30 06:35:46;;;;;;;13.50;5.10;;;;;;;38.03;48.90;97567.47;5038349;28;20242;-57
2022/06/30 06:38:12;;;;;;;12.45;5.38;;;;;;;35.50;53.07;97564.41;5038977;28;20120;-58
2022/06/30 06:40:37;;;;;;;11.93;4.60;;;;;;;38.41;47.03;97555.75;5037439;28;20055;-58
2022/06/30 06:43:02;;;;;;;14.13;5.00;;;;;;;37.78;47.70;97561.41;5039368;28;20020;-59
2022/06/30 06:45:28;;;;;;;12.38;5.10;;;;;;;37.37;46.75;97559.94;5039784;28;20040;-60
2022/06/30 06:47:53;;;;;;;12.93;5.10;;;;;;;36.83;49.02;97549.41;5039412;28;20039;-59
2022/06/30 06:50:18;;;;;;;18.23;5.68;;;;;;;38.18;45.78;97546.75;5036778;28;20486;-58
2022/06/30 06:52:44;;;;;;;12.85;5.10;;;;;;;38.33;46.20;97551.59;5036935;28;20032;-59
2022/06/30 06:55:09;;;;;;;10.68;4.97;;;;;;;38.95;42.89;97536.78;5035605;28;20119;-57
2022/06/30 06:57:37;;;;;;;8.45;4.57;;;;;;;36.62;46.30;97545.47;5038996;28;20044;-58
2022/06/30 07:00:04;;;;;;;14.32;5.47;;;;;;;37.55;45.49;97540.63;5038476;28;20764;-59
2022/06/30 07:02:30;;;;;;;11.15;4.68;;;;;;;38.25;42.51;97532.97;5038062;28;20040;-58
2022/06/30 07:04:55;;;;;;;9.70;4.68;;;;;;;38.10;43.83;97525.41;5039002;28;20140;-58
2022/06/30 07:07:21;;;;;;;11.48;4.50;;;;;;;39.70;41.44;97527.88;5037599;28;20036;-58
2022/06/30 07:09:46;;;;;;;14.35;5.20;;;;;;;38.45;41.67;97523.38;5038559;28;20423;-58
2022/06/30 07:12:11;;;;;;;11.73;5.18;;;;;;;38.22;41.83;97540.81;5037918;28;20083;-58
2022/06/30 07:14:37;;;;;;;9.52;4.57;;;;;;;36.96;44.30;97538.22;5037035;28;20051;-59
2022/06/30 07:17:02;;;;;;;10.70;4.60;;;;;;;36.73;45.21;97538.38;5037924;28;20132;-58
2022/06/30 07:19:27;;;;;;;11.02;4.47;;;;;;;39.08;39.71;97529.28;5037743;28;20033;-60
2022/06/30 07:21:53;;;;;;;9.30;4.60;;;;;;;39.43;38.85;97536.13;5037128;28;20044;-58
2022/06/30 07:24:18;;;;;;;9.57;4.60;;;;;;;37.31;43.13;97539.97;5038035;28;20396;-58
2022/06/30 07:26:44;;;;;;;9.77;4.60;;;;;;;39.17;39.98;97535.06;5038454;28;20056;-59
2022/06/30 07:29:09;;;;;;;11.05;4.85;;;;;;;40.21;38.96;97538.31;5038310;28;20052;-59
2022/06/30 07:31:35;;;;;;;9.27;5.05;;;;;;;38.88;39.58;97536.16;5037363;28;20068;-58
2022/06/30 07:34:00;;;;;;;12.02;4.70;;;;;;;37.12;43.21;97535.81;5038577;28;20123;-59
2022/06/30 07:36:25;;;;;;;12.88;5.00;;;;;;;39.47;39.06;97527.19;5036908;28;20033;-59
2022/06/30 07:38:51;;;;;;;12.57;4.90;;;;;;;37.58;42.89;97520.25;5038132;28;20033;-59
2022/06/30 07:41:18;;;;;;;14.30;5.03;;;;;;;39.08;39.88;97523.84;5036786;28;20041;-58
2022/06/30 07:43:43;;;;;;;14.57;5.13;;;;;;;37.03;41.88;97519.06;5038130;28;20028;-60
2022/06/30 07:46:09;;;;;;;13.88;5.30;;;;;;;38.81;40.70;97511.00;5037714;28;20418;-58
2022/06/30 07:48:35;;;;;;;13.40;5.50;;;;;;;38.24;41.18;97514.16;5038147;28;20433;-58
2022/06/30 07:51:01;;;;;;;12.90;4.82;;;;;;;39.31;39.65;97512.56;5036648;28;20064;-58
2022/06/30 07:53:26;;;;;;;12.38;5.15;;;;;;;40.38;36.75;97519.81;5037143;28;20059;-58
2022/06/30 07:55:51;;;;;;;14.63;5.45;;;;;;;39.20;39.14;97510.84;5037006;28;20557;-59
2022/06/30 07:58:17;;;;;;;11.23;4.70;;;;;;;40.05;37.91;97510.09;5037582;28;20106;-59
2022/06/30 08:00:42;;;;;;;11.55;4.88;;;;;;;40.09;36.80;97512.03;5035875;28;20200;-60
2022/06/30 08:03:08;;;;;;;13.02;5.25;;;;;;;38.59;39.98;97515.69;5037262;28;20033;-59
2022/06/30 08:05:33;;;;;;;11.13;5.25;;;;;;;35.78;44.76;97515.97;5036913;28;20067;-61
2022/06/30 08:07:58;;;;;;;13.52;5.53;;;;;;;37.96;40.94;97508.59;5038127;28;20053;-60
2022/06/30 08:10:24;;;;;;;16.73;6.00;;;;;;;38.78;39.39;97508.78;5035789;28;20029;-58
2022/06/30 08:12:49;;;;;;;12.80;5.40;;;;;;;38.93;38.57;97514.41;5037247;28;20029;-59
2022/06/30 08:15:15;;;;;;;11.52;5.05;;;;;;;39.67;37.23;97507.41;5036732;28;20067;-59
2022/06/30 08:17:40;;;;;;;13.38;5.80;;;;;;;39.00;37.83;97505.19;5036669;28;20383;-59
2022/06/30 08:20:06;;;;;;;12.50;5.70;;;;;;;38.79;38.50;97505.00;5037316;28;20025;-59
2022/06/30 08:22:33;;;;;;;14.45;5.60;;;;;;;37.80;38.97;97504.84;5037105;28;20111;-59
2022/06/30 08:24:58;;;;;;;13.20;5.85;;;;;;;34.93;45.09;97504.41;5036598;28;20697;-59
2022/06/30 08:27:24;;;;;;;15.13;5.82;;;;;;;36.31;42.91;97504.13;5036491;28;20076;-59
2022/06/30 08:29:50;;;;;;;13.48;5.47;;;;;;;34.36;46.44;97504.72;5036014;28;20190;-60
2022/06/30 08:32:15;;;;;;;16.65;5.88;;;;;;;35.55;45.26;97501.34;5035460;28;20045;-59
2022/06/30 08:34:41;;;;;;;14.73;5.63;;;;;;;37.88;40.93;97500.03;5036998;28;20122;-59
2022/06/30 08:37:08;;;;;;;15.00;5.75;;;;;;;36.19;42.21;97496.00;5036008;28;20040;-59
2022/06/30 08:42:20;;;;;;;15.75;5.30;;;;;;;34.47;45.48;97495.03;5035509;28;20079;-59
2022/06/30 08:45:13;;;;;;;16.95;5.97;;;;;;;33.51;49.19;97487.28;5036832;28;20032;-59
2022/06/30 08:47:31;;;;;;;12.60;5.53;;;;;;;33.31;52.58;97489.34;5034958;28;20045;-59
2022/06/30 08:49:56;;;;;;;18.05;6.07;;;;;;;33.03;53.85;97485.16;5036396;28;20613;-59
2022/06/30 08:52:24;;;;;;;16.08;5.57;;;;;;;32.22;60.65;97492.03;5035477;28;20045;-59
2022/06/30 08:54:51;;;;;;;13.93;5.65;;;;;;;32.11;58.38;97492.69;5037839;28;20324;-59
2022/06/30 08:57:17;;;;;;;15.70;6.00;;;;;;;31.57;63.35;97492.81;5036910;28;20120;-58
2022/06/30 08:59:43;;;;;;;17.40;6.40;;;;;;;32.30;63.35;97483.72;5034828;28;20027;-57
2022/06/30 09:02:09;;;;;;;19.92;6.40;;;;;;;31.87;66.88;97487.78;5032453;28;20743;-58
2022/06/30 09:04:34;;;;;;;17.38;6.03;;;;;;;31.84;65.29;97487.38;5035744;28;20589;-58
2022/06/30 09:06:59;;;;;;;19.73;6.80;;;;;;;31.15;72.02;97481.38;5034238;28;20483;-58
2022/06/30 09:09:25;;;;;;;22.13;5.97;;;;;;;32.23;65.56;97480.22;5035101;28;20025;-58
2022/06/30 09:11:52;;;;;;;17.40;5.97;;;;;;;31.61;69.22;97482.44;5035404;28;20132;-58
2022/06/30 09:14:36;;;;;;;14.88;6.25;;;;;;;32.14;67.87;97489.59;5036502;28;20693;-58
2022/06/30 09:17:06;;;;;;;17.48;6.40;;;;;;;31.41;76.15;97485.13;5036078;28;20045;-58
2022/06/30 09:19:31;;;;;;;17.30;6.40;;;;;;;30.87;84.87;97487.75;5036624;28;20044;-58
2022/06/30 09:22:14;;;;;;;20.92;6.82;;;;;;;31.02;82.91;97484.09;5035862;28;20036;-58
2022/06/30 09:24:39;;;;;;;20.20;6.78;;;;;;;30.65;77.49;97483.59;5036581;28;20037;-59
2022/06/30 09:27:19;;;;;;;21.42;6.93;;;;;;;30.82;69.51;97479.47;5036278;28;20624;-57
2022/06/30 09:29:56;;;;;;;19.45;6.93;;;;;;;30.40;71.85;97476.06;5036550;28;20095;-59
2022/06/30 09:32:22;;;;;;;19.83;6.97;;;;;;;31.03;67.72;97488.44;5035378;28;20729;-58
2022/06/30 09:34:49;;;;;;;23.02;6.90;;;;;;;30.81;67.43;97477.81;5036739;28;21106;-59
2022/06/30 09:37:24;;;;;;;20.98;7.10;;;;;;;30.72;69.00;97477.19;5037734;28;20529;-58
2022/06/30 09:39:55;;;;;;;21.90;7.22;;;;;;;30.61;69.79;97477.78;5038742;28;20052;-58
2022/06/30 09:42:39;;;;;;;18.25;6.65;;;;;;;31.10;67.29;97476.63;5039799;28;20712;-58
2022/06/30 09:45:07;;;;;;;21.17;7.07;;;;;;;30.60;70.73;97476.13;5039085;28;20097;-59
2022/06/30 09:47:33;;;;;;;23.27;7.65;;;;;;;30.40;80.60;97469.84;5039597;28;20664;-58
2022/06/30 09:50:04;;;;;;;35.53;8.45;;;;;;;30.64;77.31;97472.00;5038688;28;20025;-58
2022/06/30 09:52:30;;;;;;;20.05;6.63;;;;;;;34.09;55.63;97463.59;5039187;28;20040;-58
2022/06/30 09:55:06;;;;;;;22.30;6.82;;;;;;;34.80;49.29;97462.06;5040312;28;20055;-57
2022/06/30 09:57:36;;;;;;;15.15;5.63;;;;;;;36.90;42.74;97463.13;5040450;28;20474;-58
2022/06/30 10:00:14;;;;;;;25.50;7.78;;;;;;;36.06;43.59;97459.09;5038709;28;20474;-57
2022/06/30 10:02:46;;;;;;;21.55;6.70;;;;;;;36.92;40.75;97463.69;5040055;28;20130;-59
2022/06/30 10:05:13;;;;;;;16.58;5.80;;;;;;;36.83;40.61;97454.31;5039258;28;20112;-58
2022/06/30 10:07:39;;;;;;;18.90;5.45;;;;;;;36.76;39.41;97445.47;5039322;28;20013;-58
2022/06/30 10:10:06;;;;;;;22.80;6.90;;;;;;;35.45;41.29;97447.69;5038512;28;20590;-59
2022/06/30 10:12:32;;;;;;;18.05;5.68;;;;;;;36.75;38.67;97449.28;5039125;28;20044;-58
2022/06/30 10:14:58;;;;;;;16.33;5.55;;;;;;;35.18;42.17;97438.34;5039568;28;20135;-58
2022/06/30 10:17:30;;;;;;;18.15;5.82;;;;;;;37.60;38.86;97439.22;5038959;28;20039;-58
2022/06/30 10:19:56;;;;;;;14.27;5.40;;;;;;;36.82;40.49;97433.66;5038580;28;20036;-59
2022/06/30 10:22:24;;;;;;;17.75;5.60;;;;;;;39.62;36.52;97446.50;5038906;28;20032;-59
2022/06/30 10:24:53;;;;;;;19.55;5.47;;;;;;;38.71;36.11;97440.88;5040706;28;20086;-59
2022/06/30 10:27:21;;;;;;;17.23;5.70;;;;;;;37.57;36.89;97447.88;5038374;28;20067;-59
2022/06/30 10:29:56;;;;;;;15.82;5.68;;;;;;;37.89;36.83;97439.91;5038597;28;20767;-59
2022/06/30 10:32:45;;;;;;;18.63;5.72;;;;;;;38.28;36.17;97439.03;5038836;28;20171;-61
2022/06/30 10:35:34;;;;;;;14.68;5.25;;;;;;;38.23;37.86;97442.50;5039659;28;20359;-61
2022/06/30 10:38:23;;;;;;;17.55;5.53;;;;;;;38.03;38.43;97434.91;5034622;28;20933;-59
2022/06/30 10:41:00;;;;;;;16.08;5.40;;;;;;;38.62;36.87;97430.69;5037311;28;20087;-59
2022/06/30 10:43:26;;;;;;;15.80;5.53;;;;;;;38.37;37.50;97448.41;5038697;28;20086;-60
2022/06/30 10:45:56;;;;;;;17.50;5.50;;;;;;;36.78;40.16;97437.91;5038479;28;20041;-59
2022/06/30 10:48:22;;;;;;;15.65;5.50;;;;;;;37.43;38.96;97429.19;5038959;28;20131;-60
2022/06/30 10:50:49;;;;;;;19.48;6.05;;;;;;;37.11;40.36;97433.56;5037623;28;20051;-59
2022/06/30 10:53:33;;;;;;;12.23;4.82;;;;;;;36.14;40.08;97427.16;5039430;28;20036;-59
2022/06/30 10:55:59;;;;;;;13.57;4.95;;;;;;;36.96;39.26;97426.81;5039167;28;20663;-60
2022/06/30 10:58:24;;;;;;;15.43;4.68;;;;;;;35.46;41.06;97422.22;5039254;28;20029;-60
2022/06/30 11:01:00;;;;;;;15.70;5.00;;;;;;;34.91;44.12;97419.81;5037543;28;20225;-59
2022/06/30 11:05:58;;;;;;;;;;;;;;;35.01;42.31;97406.50;5038584;28;20138;-59
2022/06/30 11:11:24;;;;;;;17.80;5.68;;;;;;;35.30;41.60;97402.06;5037251;28;20040;-60
2022/06/30 11:14:07;;;;;;;18.20;5.47;;;;;;;35.58;41.25;97402.41;5038651;28;20056;-59
2022/06/30 11:16:35;;;;;;;17.02;5.45;;;;;;;33.87;44.19;97399.13;5026808;28;20099;-59
2022/06/30 11:19:04;;;;;;;17.42;5.50;;;;;;;33.89;45.08;97386.22;5038706;28;20115;-60
2022/06/30 11:21:31;;;;;;;19.92;5.43;;;;;;;35.70;40.25;97397.81;5037028;28;20435;-58
2022/06/30 11:24:02;;;;;;;20.17;5.80;;;;;;;35.99;39.78;97387.81;5037769;28;20025;-60
2022/06/30 11:29:16;;;;;;;18.00;5.38;;;;;;;34.78;41.05;97391.06;5038480;28;20106;-59
2022/06/30 11:31:42;;;;;;;15.27;4.95;;;;;;;36.64;37.77;97397.44;5038243;28;20052;-60
2022/06/30 11:34:19;;;;;;;21.73;5.72;;;;;;;34.78;39.91;97393.78;5038599;28;20425;-60
2022/06/30 11:36:45;;;;;;;20.75;5.40;;;;;;;34.52;40.22;97384.13;5038163;28;20044;-59
2022/06/30 11:39:20;;;;;;;18.50;5.28;;;;;;;33.58;42.09;97379.91;5037259;28;20052;-60
2022/06/30 11:41:57;;;;;;;16.77;4.97;;;;;;;35.42;39.49;97377.66;5051462;28;20068;-59
2022/06/30 11:44:50;;;;;;;17.73;5.20;;;;;;;33.76;41.29;97375.56;5037673;28;20450;-59